Time;durP1;ratioP1;P1;durP2;ratioP2;P2;SDS_P1;SDS_P2;PMS_P1;PMS_P2;Temp;Humidity;BMP_temperature;BMP_pressure;BME280_temperature;BME280_humidity;BME280_pressure;Samples;Min_cycle;Max_cycle;Signal;HPM_P1;HPM_P2
2022/05/18 00:00:06;;;;;;;7.15;3.58;;;;;;;15.06;100.00;100838.75;5091097;28;20028;-68
2022/05/18 00:02:31;;;;;;;5.20;3.53;;;;;;;15.03;100.00;100839.81;5073895;28;20437;-68
2022/05/18 00:04:56;;;;;;;7.97;4.70;;;;;;;14.96;100.00;100835.84;5074041;28;20024;-68
2022/05/18 00:07:22;;;;;;;8.95;5.28;;;;;;;15.00;100.00;100845.28;5075045;28;20074;-67
2022/05/18 00:09:49;;;;;;;10.00;4.57;;;;;;;14.92;100.00;100842.25;5074282;28;20115;-67
2022/05/18 00:12:14;;;;;;;7.45;4.18;;;;;;;14.70;100.00;100821.53;5073967;28;20032;-67
2022/05/18 00:14:40;;;;;;;10.93;5.30;;;;;;;14.89;100.00;100853.03;5075075;28;20383;-67
2022/05/18 00:17:05;;;;;;;7.43;4.53;;;;;;;14.86;100.00;100853.22;5074910;28;20043;-68
2022/05/18 00:19:31;;;;;;;8.48;5.32;;;;;;;14.67;100.00;100828.78;5090973;28;20371;-67
2022/05/18 00:21:57;;;;;;;6.68;4.40;;;;;;;14.71;100.00;100828.53;5072865;28;20031;-67
2022/05/18 00:24:22;;;;;;;9.25;4.82;;;;;;;14.74;100.00;100838.91;5074653;28;20487;-68
2022/05/18 00:26:48;;;;;;;8.60;5.57;;;;;;;14.78;100.00;100850.16;5073485;28;20387;-68
2022/05/18 00:29:13;;;;;;;8.43;5.55;;;;;;;14.79;100.00;100854.53;5071111;28;20036;-68
2022/05/18 00:31:41;;;;;;;7.20;5.25;;;;;;;14.60;100.00;100830.94;5071004;28;20036;-67
2022/05/18 00:34:07;;;;;;;7.18;5.00;;;;;;;14.78;100.00;100868.69;5087365;28;20040;-68
2022/05/18 00:36:32;;;;;;;8.15;5.22;;;;;;;14.66;100.00;100845.63;5070830;28;20020;-69
2022/05/18 00:38:57;;;;;;;8.85;5.20;;;;;;;14.74;100.00;100853.94;5071516;28;20028;-69
2022/05/18 00:41:23;;;;;;;6.20;4.43;;;;;;;14.74;100.00;100860.06;5072046;28;20025;-69
2022/05/18 00:43:50;;;;;;;6.63;4.95;;;;;;;14.76;100.00;100862.66;5071709;28;20067;-69
2022/05/18 00:46:16;;;;;;;11.30;5.07;;;;;;;14.26;100.00;100781.84;5072423;28;20028;-69
2022/05/18 00:48:42;;;;;;;7.78;4.65;;;;;;;14.70;100.00;100857.72;5071163;28;20039;-69
2022/05/18 00:51:22;;;;;;;5.65;4.90;;;;;;;14.56;100.00;100839.19;5072808;28;20086;-68
2022/05/18 00:53:49;;;;;;;8.90;4.68;;;;;;;14.76;100.00;100873.22;5088706;28;20052;-68
2022/05/18 00:56:23;;;;;;;9.77;5.05;;;;;;;14.58;100.00;100850.50;5072677;28;20100;-68
2022/05/18 00:58:54;;;;;;;8.80;4.78;;;;;;;14.56;100.00;100849.75;5065903;28;20028;-67
2022/05/18 01:01:20;;;;;;;9.43;4.53;;;;;;;14.59;100.00;100865.44;5089790;28;20032;-68
2022/05/18 01:03:51;;;;;;;7.28;4.60;;;;;;;14.60;100.00;100861.88;5089605;28;20028;-68
2022/05/18 01:06:28;;;;;;;6.63;4.78;;;;;;;14.62;100.00;100865.25;5072588;28;20025;-68
2022/05/18 01:09:00;;;;;;;8.00;4.13;;;;;;;14.54;100.00;100856.91;5073931;28;20032;-68
2022/05/18 01:11:25;;;;;;;6.47;4.43;;;;;;;14.55;100.00;100859.47;5089624;28;20036;-67
2022/05/18 01:13:51;;;;;;;6.35;4.93;;;;;;;14.53;100.00;100855.22;5074420;28;20522;-68
2022/05/18 01:16:16;;;;;;;12.05;4.85;;;;;;;14.48;100.00;100852.84;5074032;28;20033;-68
2022/05/18 01:18:43;;;;;;;6.90;4.45;;;;;;;14.48;100.00;100862.56;5074126;28;20025;-68
2022/05/18 01:21:10;;;;;;;7.75;4.47;;;;;;;14.52;100.00;100874.69;5088584;28;20074;-68
2022/05/18 01:23:59;;;;;;;7.10;4.35;;;;;;;14.52;100.00;100874.69;5073819;28;20032;-68
2022/05/18 01:26:42;;;;;;;6.78;4.82;;;;;;;14.28;100.00;100835.47;5073602;28;20673;-68
2022/05/18 01:29:08;;;;;;;9.13;4.38;;;;;;;14.48;100.00;100873.16;5089213;28;20036;-68
2022/05/18 01:31:56;;;;;;;6.30;4.45;;;;;;;14.47;100.00;100879.38;5073927;28;20037;-68
2022/05/18 01:34:28;;;;;;;9.23;4.75;;;;;;;14.38;100.00;100856.13;5086375;28;20028;-67
2022/05/18 01:36:53;;;;;;;6.82;4.15;;;;;;;14.35;100.00;100856.31;5089772;28;20063;-67
2022/05/18 01:39:40;;;;;;;7.03;4.53;;;;;;;14.40;100.00;100870.13;5088914;28;20435;-67
2022/05/18 01:42:14;;;;;;;6.10;4.25;;;;;;;14.39;100.00;100866.63;5088177;28;20036;-67
2022/05/18 01:44:40;;;;;;;15.35;4.85;;;;;;;14.13;100.00;100827.56;5091238;28;20028;-67
2022/05/18 01:47:06;;;;;;;6.57;4.50;;;;;;;14.37;100.00;100876.41;5089710;28;20097;-67
2022/05/18 01:49:37;;;;;;;7.07;4.38;;;;;;;14.33;100.00;100864.28;5080487;28;20048;-67
2022/05/18 01:52:03;;;;;;;6.90;4.18;;;;;;;14.33;100.00;100865.16;5090355;28;20032;-67
2022/05/18 01:54:28;;;;;;;7.35;4.80;;;;;;;14.35;100.00;100872.16;5090046;28;20086;-67
2022/05/18 01:56:53;;;;;;;7.30;4.70;;;;;;;14.27;100.00;100854.91;5089986;28;20028;-67
2022/05/18 01:59:19;;;;;;;13.15;5.63;;;;;;;14.33;100.00;100870.44;5080232;28;20037;-67
2022/05/18 02:01:45;;;;;;;7.35;4.05;;;;;;;14.07;100.00;100842.00;5069838;28;20028;-67
2022/05/18 02:04:12;;;;;;;5.85;4.35;;;;;;;14.32;100.00;100884.59;5065855;28;20449;-67
2022/05/18 02:06:38;;;;;;;5.18;4.05;;;;;;;14.21;100.00;100868.50;5069130;28;20115;-67
2022/05/18 02:09:04;;;;;;;6.28;4.65;;;;;;;14.29;100.00;100873.34;5070051;28;20123;-67
2022/05/18 02:11:32;;;;;;;5.32;3.80;;;;;;;14.28;100.00;100872.50;5072823;28;20035;-68
2022/05/18 02:13:57;;;;;;;5.97;3.97;;;;;;;14.22;100.00;100866.72;5071429;28;20035;-68
2022/05/18 02:16:23;;;;;;;8.10;4.90;;;;;;;14.13;100.00;100852.22;5072939;28;20032;-68
2022/05/18 02:18:48;;;;;;;9.48;4.65;;;;;;;14.20;100.00;100861.50;5071711;28;20028;-68
2022/05/18 02:21:13;;;;;;;5.95;4.18;;;;;;;14.14;100.00;100858.34;5072543;28;20036;-68
2022/05/18 02:23:42;;;;;;;5.90;4.47;;;;;;;14.19;100.00;100873.00;5071042;28;20063;-67
2022/05/18 02:26:10;;;;;;;5.68;3.97;;;;;;;14.18;100.00;100868.69;5073250;28;20511;-67
2022/05/18 02:28:35;;;;;;;6.10;3.65;;;;;;;14.19;100.00;100873.00;5070208;28;20040;-67
2022/05/18 02:31:01;;;;;;;6.72;4.38;;;;;;;14.12;100.00;100861.09;5070062;28;20090;-67
2022/05/18 02:33:26;;;;;;;5.70;4.20;;;;;;;14.17;100.00;100869.59;5078165;28;20479;-66
2022/05/18 02:35:51;;;;;;;8.68;4.13;;;;;;;14.11;100.00;100854.09;5069593;28;20090;-67
2022/05/18 02:38:17;;;;;;;5.45;4.15;;;;;;;14.15;100.00;100860.94;5070273;28;20038;-67
2022/05/18 02:40:43;;;;;;;7.25;4.20;;;;;;;14.17;100.00;100859.03;5072051;28;20029;-67
2022/05/18 02:43:09;;;;;;;7.75;4.07;;;;;;;14.18;100.00;100857.25;5070614;28;20035;-67
2022/05/18 02:45:35;;;;;;;8.93;4.75;;;;;;;14.13;100.00;100852.22;5070741;28;20036;-68
2022/05/18 02:48:00;;;;;;;7.57;3.85;;;;;;;14.18;100.00;100855.47;5070787;28;20082;-67
2022/05/18 02:50:26;;;;;;;7.18;4.28;;;;;;;14.22;100.00;100862.28;5070588;28;20111;-68
2022/05/18 02:52:52;;;;;;;7.05;4.35;;;;;;;14.24;100.00;100860.38;5070126;28;20394;-68
2022/05/18 02:58:01;;;;;;;6.60;3.90;;;;;;;14.24;100.00;100860.38;5068348;28;20062;-68
2022/05/18 03:00:26;;;;;;;8.25;4.65;;;;;;;14.18;100.00;100849.31;5069608;28;20100;-68
2022/05/18 03:02:52;;;;;;;7.13;4.38;;;;;;;14.26;100.00;100858.50;5068457;28;20040;-68
2022/05/18 03:05:17;;;;;;;7.57;4.55;;;;;;;14.20;100.00;100853.56;5068649;28;20108;-68
2022/05/18 03:07:43;;;;;;;6.10;4.28;;;;;;;14.28;100.00;100866.34;5078980;28;20032;-68
2022/05/18 03:10:09;;;;;;;5.70;4.40;;;;;;;14.27;100.00;100870.78;5073194;28;20455;-68
2022/05/18 03:12:34;;;;;;;8.80;4.60;;;;;;;14.25;100.00;100867.38;5070962;28;20112;-67
2022/05/18 03:15:00;;;;;;;5.45;3.72;;;;;;;14.17;100.00;100859.03;5072627;28;20463;-68
2022/05/18 03:17:25;;;;;;;11.88;4.35;;;;;;;14.22;100.00;100872.84;5072249;28;20051;-68
2022/05/18 03:19:51;;;;;;;7.05;4.13;;;;;;;14.13;100.00;100846.06;5072338;28;20024;-68
2022/05/18 03:25:02;;;;;;;5.85;4.10;;;;;;;14.09;100.00;100863.91;5072847;28;20046;-68
2022/05/18 03:27:28;;;;;;;4.97;4.18;;;;;;;14.13;100.00;100873.34;5072500;28;20041;-67
2022/05/18 03:29:56;;;;;;;5.35;4.25;;;;;;;14.17;100.00;100885.47;5074588;28;20086;-68
2022/05/18 03:32:22;;;;;;;7.60;3.97;;;;;;;14.12;100.00;100878.75;5076173;28;20028;-68
2022/05/18 03:34:49;;;;;;;11.30;4.18;;;;;;;14.06;100.00;100872.00;5076081;28;20034;-68
2022/05/18 03:37:16;;;;;;;8.27;3.80;;;;;;;14.14;100.00;100892.72;5075710;28;20025;-68
2022/05/18 03:39:42;;;;;;;6.00;4.38;;;;;;;14.05;100.00;100886.19;5074534;28;20024;-68
2022/05/18 03:42:07;;;;;;;10.75;4.20;;;;;;;14.09;100.00;100895.59;5076314;28;20037;-68
2022/05/18 03:44:33;;;;;;;5.22;3.70;;;;;;;14.06;100.00;100898.44;5076004;28;20028;-68
2022/05/18 03:46:58;;;;;;;5.30;3.65;;;;;;;14.01;100.00;100892.56;5076016;28;20032;-68
2022/05/18 03:49:25;;;;;;;7.72;3.80;;;;;;;14.10;100.00;100904.41;5076426;28;20459;-68
2022/05/18 03:51:50;;;;;;;5.15;4.15;;;;;;;14.09;100.00;100897.44;5076317;28;20036;-68
2022/05/18 03:54:16;;;;;;;7.80;4.72;;;;;;;14.12;100.00;100903.41;5076292;28;20440;-68
2022/05/18 03:56:41;;;;;;;5.22;3.80;;;;;;;14.14;100.00;100904.16;5076099;28;20041;-68
2022/05/18 03:59:06;;;;;;;6.95;4.35;;;;;;;14.22;100.00;100914.28;5076027;28;20024;-68
2022/05/18 04:01:32;;;;;;;6.25;4.20;;;;;;;14.28;100.00;100921.88;5075722;28;20032;-68
2022/05/18 04:03:57;;;;;;;4.57;3.78;;;;;;;14.36;100.00;100932.03;5075068;28;20487;-68
2022/05/18 04:06:23;;;;;;;6.50;3.80;;;;;;;14.33;100.00;100922.44;5076108;28;20419;-67
2022/05/18 04:08:49;;;;;;;7.50;3.90;;;;;;;14.44;100.00;100943.88;5075988;28;20020;-67
2022/05/18 04:11:16;;;;;;;6.30;4.65;;;;;;;14.46;100.00;100941.16;5076009;28;20031;-67
2022/05/18 04:13:42;;;;;;;9.70;4.75;;;;;;;14.64;100.00;100954.16;5074361;28;20024;-67
2022/05/18 04:16:08;;;;;;;5.93;4.30;;;;;;;14.62;100.00;100960.47;5075347;28;20174;-68
2022/05/18 04:18:34;;;;;;;6.53;4.47;;;;;;;14.64;100.00;100959.44;5075690;28;20025;-67
2022/05/18 04:21:00;;;;;;;7.22;4.78;;;;;;;14.66;100.00;100969.94;5073855;28;20024;-67
2022/05/18 04:23:26;;;;;;;8.43;3.72;;;;;;;14.60;100.00;100967.66;5074277;28;20036;-68
2022/05/18 04:25:52;;;;;;;5.72;4.03;;;;;;;14.75;100.00;100957.03;5072288;28;20028;-67
2022/05/18 04:28:17;;;;;;;7.32;4.05;;;;;;;14.76;100.00;100963.19;5058215;28;20043;-67
2022/05/18 04:30:45;;;;;;;4.40;3.13;;;;;;;14.85;100.00;100952.03;5061485;28;20059;-68
2022/05/18 04:33:12;;;;;;;6.75;3.85;;;;;;;14.74;100.00;100933.28;5060551;28;20086;-67
2022/05/18 04:35:38;;;;;;;4.68;3.78;;;;;;;14.94;100.00;100956.78;5066881;28;20032;-68
2022/05/18 04:38:05;;;;;;;5.80;3.60;;;;;;;14.97;100.00;100951.31;5071623;28;20112;-69
2022/05/18 04:40:30;;;;;;;5.75;3.78;;;;;;;14.90;100.00;100968.53;5065836;28;20035;-69
2022/05/18 04:46:11;;;;;;;6.07;3.20;;;;;;;15.22;100.00;100969.22;5074177;28;20078;-68
2022/05/18 04:48:36;;;;;;;8.52;4.28;;;;;;;15.20;100.00;100968.50;5079150;28;20395;-68
2022/05/18 04:51:05;;;;;;;6.30;4.00;;;;;;;15.15;100.00;100944.94;5074785;28;20036;-67
2022/05/18 04:53:31;;;;;;;6.68;4.13;;;;;;;15.37;100.00;100967.47;5075329;28;20028;-67
2022/05/18 04:55:56;;;;;;;8.15;4.10;;;;;;;15.41;100.00;100959.22;5074755;28;20028;-69
2022/05/18 04:58:22;;;;;;;21.88;4.97;;;;;;;15.52;100.00;100974.50;5074883;28;20039;-69
2022/05/18 05:00:53;;;;;;;9.38;4.75;;;;;;;15.56;100.00;100976.00;5089900;28;20037;-69
2022/05/18 05:03:19;;;;;;;20.17;5.72;;;;;;;15.75;100.00;100989.81;5075119;28;20055;-69
2022/05/18 05:05:44;;;;;;;25.85;5.63;;;;;;;15.82;100.00;100988.50;5074955;28;20025;-69
2022/05/18 05:08:09;;;;;;;11.57;5.43;;;;;;;15.88;100.00;100992.56;5074992;28;20029;-68
2022/05/18 05:10:35;;;;;;;15.48;6.40;;;;;;;15.89;100.00;100973.91;5074329;28;20044;-68
2022/05/18 05:13:00;;;;;;;18.20;6.75;;;;;;;16.00;100.00;100978.53;5074689;28;20059;-68
2022/05/18 05:15:26;;;;;;;24.55;5.63;;;;;;;16.06;100.00;100979.00;5042784;28;20030;-68
2022/05/18 05:17:51;;;;;;;28.25;4.97;;;;;;;16.23;100.00;100992.03;5046518;28;20059;-68
2022/05/18 05:20:17;;;;;;;11.95;5.72;;;;;;;16.26;100.00;100965.31;5044419;28;20040;-69
2022/05/18 05:22:42;;;;;;;13.90;5.65;;;;;;;16.60;100.00;100997.63;5026979;28;20055;-69
2022/05/18 05:25:09;;;;;;;12.57;6.13;;;;;;;16.74;100.00;100994.94;5027852;28;20913;-69
2022/05/18 05:27:34;;;;;;;16.33;7.00;;;;;;;16.88;100.00;100996.69;5027768;28;20028;-69
2022/05/18 05:29:59;;;;;;;18.00;6.43;;;;;;;17.09;100.00;101006.72;5044731;28;20135;-69
2022/05/18 05:32:25;;;;;;;10.63;5.78;;;;;;;17.32;100.00;100998.03;5035442;28;20040;-69
2022/05/18 05:34:51;;;;;;;14.68;6.78;;;;;;;17.50;100.00;100995.06;5052901;28;20035;-68
2022/05/18 05:37:17;;;;;;;19.25;7.15;;;;;;;17.66;100.00;101001.03;5044066;28;20061;-69
2022/05/18 05:39:42;;;;;;;14.05;5.53;;;;;;;17.72;100.00;100987.31;5063812;28;20028;-68
2022/05/18 05:42:08;;;;;;;22.10;7.07;;;;;;;17.95;100.00;101007.81;5047405;28;20085;-68
2022/05/18 05:44:33;;;;;;;17.08;6.55;;;;;;;17.91;100.00;101006.34;5047529;28;20047;-68
2022/05/18 05:47:03;;;;;;;14.77;5.95;;;;;;;17.83;100.00;100998.06;5034839;28;20039;-69
2022/05/18 05:49:29;;;;;;;13.68;6.60;;;;;;;17.91;100.00;101001.03;5027462;28;20365;-69
2022/05/18 05:51:54;;;;;;;21.23;6.15;;;;;;;17.88;100.00;101008.38;5035803;28;20952;-69
2022/05/18 05:54:19;;;;;;;11.80;5.93;;;;;;;17.75;100.00;100984.44;5047857;28;20024;-69
2022/05/18 05:56:45;;;;;;;7.18;4.88;;;;;;;17.81;100.00;101000.81;5047739;28;20028;-69
2022/05/18 05:59:11;;;;;;;7.95;4.22;;;;;;;17.75;100.00;100987.97;5046799;28;20034;-69
2022/05/18 06:01:36;;;;;;;9.45;4.05;;;;;;;17.88;100.00;100999.41;5048382;28;20039;-69
2022/05/18 06:04:03;;;;;;;6.68;4.43;;;;;;;18.03;100.00;101000.16;5044012;28;20839;-69
2022/05/18 06:06:28;;;;;;;12.18;4.40;;;;;;;18.08;100.00;100995.34;5060801;28;20047;-74
2022/05/18 06:08:53;;;;;;;6.60;4.22;;;;;;;18.24;100.00;101009.25;5073582;28;20033;-69
2022/05/18 06:11:19;;;;;;;9.57;4.07;;;;;;;18.27;100.00;100994.88;5073461;28;20596;-69
2022/05/18 06:13:44;;;;;;;7.82;3.67;;;;;;;18.41;100.00;101000.06;5077940;28;20028;-68
2022/05/18 06:16:10;;;;;;;6.32;3.92;;;;;;;18.58;100.00;101010.34;5088867;28;20024;-69
2022/05/18 06:18:36;;;;;;;7.25;4.13;;;;;;;18.64;100.00;101006.38;5088368;28;20042;-69
2022/05/18 06:21:02;;;;;;;9.77;3.90;;;;;;;18.63;100.00;100981.56;5073023;28;20066;-69
2022/05/18 06:23:27;;;;;;;13.27;3.58;;;;;;;18.98;100.00;101021.53;5072961;28;20036;-69
2022/05/18 06:26:01;;;;;;;9.25;3.72;;;;;;;19.03;100.00;100998.06;5073248;28;20037;-69
2022/05/18 06:28:27;;;;;;;8.77;3.63;;;;;;;19.29;100.00;101031.59;5065264;28;20856;-69
2022/05/18 06:30:52;;;;;;;10.25;3.33;;;;;;;19.41;100.00;101020.97;5047019;28;20024;-69
2022/05/18 06:33:18;;;;;;;6.28;3.35;;;;;;;19.62;100.00;101020.16;5045633;28;20148;-69
2022/05/18 06:35:44;;;;;;;12.23;3.58;;;;;;;19.72;100.00;101017.63;5042005;28;20957;-69
2022/05/18 06:38:12;;;;;;;7.25;3.95;;;;;;;19.94;100.00;101028.28;5064483;28;20382;-69
2022/05/18 06:43:22;;;;;;;15.50;4.22;;;;;;;20.29;100.00;101023.69;5072527;28;20059;-69
2022/05/18 06:45:48;;;;;;;11.52;4.18;;;;;;;20.49;100.00;101026.56;5062664;28;20032;-68
2022/05/18 06:48:14;;;;;;;10.27;3.30;;;;;;;20.70;100.00;101028.34;5058883;28;20549;-69
2022/05/18 06:50:39;;;;;;;9.13;3.25;;;;;;;20.76;100.00;101013.63;5059377;28;20036;-70
2022/05/18 06:53:05;;;;;;;9.88;3.08;;;;;;;21.01;100.00;101031.16;5027565;28;20032;-69
2022/05/18 06:55:30;;;;;;;8.50;3.00;;;;;;;21.25;100.00;101032.66;5027646;28;20095;-69
2022/05/18 06:57:56;;;;;;;7.47;2.72;;;;;;;21.43;100.00;101027.53;5030505;28;20949;-69
2022/05/18 07:00:21;;;;;;;5.25;2.53;;;;;;;21.65;100.00;101032.75;5038694;28;20052;-70
2022/05/18 07:02:46;;;;;;;4.22;2.67;;;;;;;21.76;100.00;101023.81;5034303;28;20024;-69
2022/05/18 07:05:12;;;;;;;9.02;3.40;;;;;;;21.66;100.00;100980.09;5031401;28;20031;-69
2022/05/18 07:07:37;;;;;;;7.00;3.00;;;;;;;22.11;100.00;101028.75;5037531;28;20041;-69
2022/05/18 07:10:04;;;;;;;11.30;3.50;;;;;;;22.29;100.00;101030.69;5032880;28;20921;-69
2022/05/18 07:12:29;;;;;;;12.52;3.30;;;;;;;22.36;100.00;101023.78;5048631;28;20028;-69
2022/05/18 07:14:54;;;;;;;5.68;3.03;;;;;;;22.11;100.00;100981.44;5047551;28;20931;-69
2022/05/18 07:17:20;;;;;;;5.07;2.70;;;;;;;22.41;100.00;101036.75;5034220;28;20139;-69
2022/05/18 07:19:45;;;;;;;4.07;2.28;;;;;;;22.27;100.00;101031.81;5034905;28;20025;-69
2022/05/18 07:22:12;;;;;;;7.13;2.75;;;;;;;22.28;100.00;101041.50;5040030;28;20040;-68
2022/05/18 07:24:37;;;;;;;13.07;3.92;;;;;;;22.20;100.00;101044.03;5041026;28;20822;-69
2022/05/18 07:27:03;;;;;;;9.30;2.63;;;;;;;22.10;100.00;101035.97;5042078;28;20029;-69
2022/05/18 07:29:29;;;;;;;9.88;3.28;;;;;;;22.09;100.00;101042.31;5042223;28;20043;-68
2022/05/18 07:32:09;;;;;;;10.27;2.78;;;;;;;21.93;100.00;101035.75;5042797;28;20029;-68
2022/05/18 07:34:38;;;;;;;9.30;2.83;;;;;;;21.94;100.00;101054.34;5045736;28;20039;-68
2022/05/18 07:37:04;;;;;;;7.28;2.83;;;;;;;21.88;100.00;101050.34;5045254;28;20031;-68
2022/05/18 07:39:30;;;;;;;6.90;2.40;;;;;;;21.87;100.00;101058.50;5047539;28;20025;-68
2022/05/18 07:41:56;;;;;;;25.25;4.13;;;;;;;21.69;100.00;101028.00;5043384;28;20029;-69
2022/05/18 07:44:22;;;;;;;8.43;3.40;;;;;;;21.43;100.00;100994.63;5045613;28;20349;-69
2022/05/18 07:46:48;;;;;;;9.10;3.40;;;;;;;21.72;100.00;101047.31;5047083;28;20515;-68
2022/05/18 07:49:13;;;;;;;22.27;3.13;;;;;;;21.44;100.00;101012.34;5045652;28;20020;-69
2022/05/18 07:51:39;;;;;;;5.20;2.65;;;;;;;21.54;100.00;101035.50;5046277;28;20024;-68
2022/05/18 07:54:04;;;;;;;9.13;3.13;;;;;;;21.59;100.00;101056.50;5045754;28;20024;-68
2022/05/18 07:56:30;;;;;;;5.78;2.78;;;;;;;21.40;100.00;101049.19;5045704;28;20082;-68
2022/05/18 07:58:55;;;;;;;12.82;3.15;;;;;;;21.03;100.00;101007.81;5050590;28;20099;-68
2022/05/18 08:01:20;;;;;;;5.15;2.50;;;;;;;21.25;100.00;101056.72;5059171;28;20471;-68
2022/05/18 08:03:48;;;;;;;11.80;3.30;;;;;;;21.23;100.00;101064.00;5058643;28;20399;-68
2022/05/18 08:06:13;;;;;;;7.22;3.55;;;;;;;21.20;100.00;101053.56;5071956;28;20021;-68
2022/05/18 08:08:39;;;;;;;5.63;3.17;;;;;;;21.36;100.00;101066.47;5072286;28;20074;-68
2022/05/18 08:16:33;;;;;;;4.00;2.28;;;;;;;21.94;100.00;101065.03;5050921;28;20075;-68
2022/05/18 08:18:59;;;;;;;9.25;3.13;;;;;;;22.08;100.00;101061.16;5058628;28;20944;-69
2022/05/18 08:21:24;;;;;;;8.23;2.38;;;;;;;21.93;100.00;101004.47;5050434;28;20035;-68
2022/05/18 08:23:50;;;;;;;10.32;3.03;;;;;;;22.22;100.00;101037.56;5070614;28;20037;-68
2022/05/18 08:26:15;;;;;;;6.07;2.85;;;;;;;22.54;100.00;101052.59;5063740;28;20036;-68
2022/05/18 08:28:41;;;;;;;8.23;3.42;;;;;;;22.66;100.00;101056.84;5046929;28;20028;-68
2022/05/18 08:31:06;;;;;;;7.38;2.70;;;;;;;22.75;100.00;101051.53;5064160;28;20035;-68
2022/05/18 08:33:32;;;;;;;5.78;2.80;;;;;;;22.88;100.00;101054.78;5069073;28;20600;-67
2022/05/18 08:36:07;;;;;;;10.02;3.38;;;;;;;23.04;98.81;101062.28;5060859;28;20105;-69
2022/05/18 08:38:34;;;;;;;15.82;4.53;;;;;;;23.16;98.58;101058.47;5057545;28;20093;-67
2022/05/18 08:41:11;;;;;;;10.10;3.13;;;;;;;23.32;97.25;101071.31;5100770;27;20098;-67
2022/05/18 08:43:40;;;;;;;5.75;2.65;;;;;;;23.46;92.46;101073.56;5066912;28;20031;-68
2022/05/18 08:46:28;;;;;;;9.18;3.10;;;;;;;23.56;99.42;101057.47;5068420;28;20034;-68
2022/05/18 08:49:15;;;;;;;8.32;3.28;;;;;;;23.75;100.00;101065.47;5066421;28;20384;-67
2022/05/18 08:51:48;;;;;;;4.53;2.88;;;;;;;23.78;95.67;101068.72;5074856;28;20035;-68
2022/05/18 08:54:29;;;;;;;4.97;3.05;;;;;;;23.77;95.56;101066.19;5061513;28;20953;-67
2022/05/18 08:56:57;;;;;;;6.50;2.45;;;;;;;23.76;95.56;101064.50;5043117;28;20024;-68
2022/05/18 08:59:26;;;;;;;4.57;2.72;;;;;;;23.66;93.40;101051.09;5045116;28;20097;-69
2022/05/18 09:01:56;;;;;;;6.82;2.88;;;;;;;23.62;93.18;101060.44;5046749;28;20056;-68
2022/05/18 09:05:03;;;;;;;4.45;2.53;;;;;;;23.66;99.85;101074.38;5049932;28;20880;-68
2022/05/18 09:07:53;;;;;;;6.97;3.05;;;;;;;23.56;98.36;101058.31;5043286;28;20083;-69
2022/05/18 09:10:26;;;;;;;5.95;3.05;;;;;;;23.61;100.00;101050.69;5044415;28;20094;-69
2022/05/18 09:12:51;;;;;;;7.20;2.85;;;;;;;23.63;97.77;101045.16;5048499;28;20058;-68
2022/05/18 09:15:38;;;;;;;7.18;3.30;;;;;;;23.63;97.53;101043.31;5058958;28;20138;-69
2022/05/18 09:18:12;;;;;;;6.00;2.78;;;;;;;23.82;98.90;101062.09;5050728;28;20048;-68
2022/05/18 09:20:44;;;;;;;;;;;;;;;23.94;100.00;101068.09;5053853;28;20064;-67
2022/05/18 09:23:38;;;;;;;7.63;3.67;;;;;;;24.01;100.00;101055.78;5070472;28;19924;-68
2022/05/18 09:26:27;;;;;;;6.28;3.30;;;;;;;24.14;100.00;101067.06;5063310;28;20021;-68
2022/05/18 09:29:03;;;;;;;6.95;3.83;;;;;;;24.19;100.00;101067.50;5024794;28;20062;-68
2022/05/18 09:32:07;;;;;;;6.57;3.42;;;;;;;24.10;98.56;101068.31;5040271;28;20066;-71
2022/05/18 09:34:46;;;;;;;6.82;3.58;;;;;;;24.10;98.01;101068.31;5070820;28;20063;-67
2022/05/18 09:37:32;;;;;;;7.80;3.17;;;;;;;24.14;97.90;101068.91;5069903;28;20561;-68
2022/05/18 09:40:25;;;;;;;8.10;4.00;;;;;;;24.19;95.48;101067.50;5064519;28;20090;-69
2022/05/18 09:43:05;;;;;;;5.05;3.60;;;;;;;24.16;94.39;101062.41;5051163;28;20062;-69
2022/05/18 09:45:33;;;;;;;6.30;3.30;;;;;;;24.14;96.10;101063.53;5062213;28;20055;-69
2022/05/18 09:48:08;;;;;;;4.80;3.08;;;;;;;23.88;96.98;101010.47;5065347;28;20039;-69
2022/05/18 09:50:36;;;;;;;7.78;3.65;;;;;;;24.18;97.61;101060.41;5078714;28;20040;-69
2022/05/18 09:53:01;;;;;;;5.07;2.90;;;;;;;24.26;99.81;101052.47;5068122;28;20486;-68
2022/05/18 09:55:27;;;;;;;8.52;3.10;;;;;;;24.53;95.72;101066.91;5080749;28;20275;-68
2022/05/18 09:58:14;;;;;;;7.68;2.92;;;;;;;24.65;94.51;101063.00;5062607;28;20104;-67
2022/05/18 10:00:39;;;;;;;7.75;2.90;;;;;;;24.77;93.31;101056.41;5063383;28;20082;-68
2022/05/18 10:08:53;;;;;;;6.13;3.42;;;;;;;24.96;89.93;101050.91;5061179;28;20048;-68
2022/05/18 10:11:26;;;;;;;10.77;3.55;;;;;;;25.05;92.54;101054.50;5060447;28;20032;-67
2022/05/18 10:14:15;;;;;;;9.27;3.72;;;;;;;24.90;88.62;101027.34;5063977;28;20119;-67
2022/05/18 10:16:49;;;;;;;5.25;3.33;;;;;;;25.04;91.18;101056.38;5062419;28;20218;-68
2022/05/18 10:19:27;;;;;;;9.88;3.40;;;;;;;25.07;90.45;101042.63;5076608;28;20041;-68
2022/05/18 10:22:02;;;;;;;7.68;3.22;;;;;;;25.10;89.96;101034.25;5062167;28;20039;-68
2022/05/18 10:25:03;;;;;;;10.38;3.33;;;;;;;25.34;90.16;101045.22;5058443;28;20059;-68
2022/05/18 10:27:31;;;;;;;11.40;3.17;;;;;;;25.35;88.45;101025.34;5059068;28;20028;-68
2022/05/18 10:30:25;;;;;;;7.28;3.40;;;;;;;25.57;85.11;101040.19;5065718;28;20841;-68
2022/05/18 10:32:57;;;;;;;5.75;3.08;;;;;;;25.38;85.06;101018.84;5064017;28;20041;-69
2022/05/18 10:35:41;;;;;;;7.90;3.60;;;;;;;25.47;83.48;101038.56;5058448;28;20028;-69
2022/05/18 10:38:26;;;;;;;6.37;3.17;;;;;;;25.43;82.27;101040.72;5060389;28;20035;-67
2022/05/18 10:41:13;;;;;;;4.82;2.58;;;;;;;25.56;83.46;101032.25;5071669;28;20093;-67
2022/05/18 10:43:55;;;;;;;6.57;3.10;;;;;;;25.76;82.33;101034.59;5060954;28;20552;-69
2022/05/18 10:46:38;;;;;;;5.40;2.90;;;;;;;25.86;82.00;101034.47;5059988;28;20045;-68
2022/05/18 10:49:28;;;;;;;7.47;2.47;;;;;;;25.97;76.79;101030.66;5059889;28;20039;-68
2022/05/18 10:51:53;;;;;;;6.10;2.88;;;;;;;25.97;80.00;101007.25;5058322;28;20282;-68
2022/05/18 10:54:28;;;;;;;5.55;2.63;;;;;;;26.21;77.38;101018.19;5058969;28;20454;-68
2022/05/18 10:57:12;;;;;;;13.10;4.30;;;;;;;26.66;80.79;101022.38;5073408;28;20120;-68
2022/05/18 10:59:48;;;;;;;11.00;4.75;;;;;;;26.82;77.24;100995.44;5062690;28;20043;-67
2022/05/18 11:02:52;;;;;;;13.15;3.85;;;;;;;27.32;76.50;101024.97;5052771;28;20020;-68
2022/05/18 11:05:46;;;;;;;31.95;5.57;;;;;;;27.69;74.22;101021.72;5072003;28;20037;-65
2022/05/18 11:08:16;;;;;;;11.20;3.67;;;;;;;27.63;72.03;100992.72;5059997;28;20092;-67
2022/05/18 11:10:57;;;;;;;11.43;3.63;;;;;;;27.97;70.71;101022.16;5075326;28;20576;-67
2022/05/18 11:13:28;;;;;;;8.85;3.03;;;;;;;28.07;69.94;101012.03;5070400;28;20730;-68
2022/05/18 11:16:01;;;;;;;9.73;3.63;;;;;;;28.23;70.22;101018.22;5060547;28;20032;-69
2022/05/18 11:18:47;;;;;;;5.90;3.45;;;;;;;28.32;71.06;101019.84;5075878;28;20033;-68
2022/05/18 11:21:51;;;;;;;5.68;3.20;;;;;;;28.90;72.35;100999.56;5062021;28;20040;-68
2022/05/18 11:24:49;;;;;;;8.45;2.80;;;;;;;29.18;69.32;101011.53;5061912;28;20044;-68
2022/05/18 11:27:18;;;;;;;5.45;2.38;;;;;;;29.54;74.38;101005.47;5078404;28;20370;-67
2022/05/18 11:29:49;;;;;;;6.15;2.55;;;;;;;29.50;67.35;101005.00;5061223;28;20837;-68
2022/05/18 11:32:32;;;;;;;4.88;2.60;;;;;;;29.04;66.39;101009.59;5080679;28;20032;-67
2022/05/18 11:35:10;;;;;;;6.20;2.65;;;;;;;28.74;68.23;100996.97;5079387;28;20147;-67
2022/05/18 11:38:11;;;;;;;11.40;3.30;;;;;;;28.57;70.43;101003.47;5078271;28;20093;-67
2022/05/18 11:40:42;;;;;;;10.40;3.53;;;;;;;28.54;68.09;100999.28;5058686;28;20056;-67
2022/05/18 11:43:30;;;;;;;5.75;2.55;;;;;;;28.48;68.26;100986.47;5063644;28;20470;-67
2022/05/18 11:46:15;;;;;;;9.18;2.97;;;;;;;28.46;68.66;101007.44;5061277;28;20033;-68
2022/05/18 11:48:56;;;;;;;5.72;2.97;;;;;;;28.28;70.52;100980.69;5057253;28;20036;-68
2022/05/18 11:51:32;;;;;;;14.70;3.17;;;;;;;28.27;66.92;100992.50;5077241;28;20028;-68